Time;durP1;ratioP1;P1;durP2;ratioP2;P2;SDS_P1;SDS_P2;PMS_P1;PMS_P2;Temp;Humidity;BMP_temperature;BMP_pressure;BME280_temperature;BME280_humidity;BME280_pressure;Samples;Min_cycle;Max_cycle;Signal;HPM_P1;HPM_P2
2020/12/23 00:01:35;;;;;;;6.43;5.82;;;13.20;91.80;14.20;100395.00;;;;5054302;28;20403;-87
2020/12/23 00:04:02;;;;;;;5.90;5.30;;;13.20;91.80;14.10;100391.00;;;;5054378;28;20415;-88
2020/12/23 00:06:33;;;;;;;5.22;4.72;;;13.20;91.80;14.10;100396.00;;;;5055403;28;20483;-87
2020/12/23 00:09:02;;;;;;;4.60;4.20;;;13.30;91.80;14.10;100377.00;;;;5051270;28;20439;-86
2020/12/23 00:11:30;;;;;;;4.57;4.18;;;13.30;91.80;14.00;100389.00;;;;5039363;28;20490;-86
2020/12/23 00:13:57;;;;;;;4.40;4.00;;;13.30;91.70;14.00;100394.00;;;;5054825;28;20429;-85
2020/12/23 00:16:25;;;;;;;4.20;3.80;;;13.30;91.70;14.00;100377.00;;;;5053588;28;20494;-86
2020/12/23 00:18:52;;;;;;;3.50;3.20;;;13.30;91.70;14.00;100381.00;;;;5053891;28;20407;-87
2020/12/23 00:21:19;;;;;;;4.13;3.08;;;13.30;91.70;14.00;100390.00;;;;5052639;28;20431;-85
2020/12/23 00:23:46;;;;;;;3.70;3.40;;;13.30;91.60;14.00;100394.00;;;;5047608;28;20453;-86
2020/12/23 00:26:15;;;;;;;3.60;3.30;;;13.30;91.60;14.10;100375.00;;;;5054835;28;20396;-85
2020/12/23 00:28:42;;;;;;;3.90;3.50;;;13.30;91.60;14.00;100369.00;;;;5054807;28;20458;-86
2020/12/23 00:31:15;;;;;;;3.70;3.40;;;13.30;91.60;14.10;100365.00;;;;5052983;28;20423;-85
2020/12/23 00:33:43;;;;;;;4.55;3.30;;;13.30;91.60;14.10;100366.00;;;;5054283;28;20407;-85
2020/12/23 00:36:13;;;;;;;3.00;2.70;;;13.30;91.60;14.00;100360.00;;;;5047537;28;20427;-85
2020/12/23 00:38:42;;;;;;;3.92;3.00;;;13.40;91.60;14.10;100359.00;;;;5035323;28;20483;-86
2020/12/23 00:41:10;;;;;;;3.58;3.20;;;13.40;91.60;14.10;100353.00;;;;5035097;28;20468;-84
2020/12/23 00:43:39;;;;;;;3.80;3.08;;;13.30;91.60;14.10;100362.00;;;;5036560;28;20485;-83
2020/12/23 00:46:11;;;;;;;3.60;3.03;;;13.40;91.60;14.20;100370.00;;;;5034780;28;20427;-84
2020/12/23 00:48:39;;;;;;;4.60;3.20;;;13.40;91.60;14.20;100363.00;;;;5034187;28;20430;-84
2020/12/23 00:51:11;;;;;;;3.78;3.33;;;13.40;91.60;14.20;100367.00;;;;5051868;28;20423;-85
2020/12/23 00:53:39;;;;;;;3.17;2.88;;;13.40;91.80;14.20;100359.00;;;;5046807;28;20418;-84
2020/12/23 00:56:08;;;;;;;3.10;2.80;;;13.40;91.50;14.20;100335.00;;;;5034151;28;20423;-84
2020/12/23 00:58:36;;;;;;;3.20;2.80;;;13.50;91.50;14.20;100335.00;;;;5034461;28;20514;-84
2020/12/23 01:01:05;;;;;;;3.40;2.90;;;13.40;91.40;14.20;100364.00;;;;5028242;28;20966;-84
2020/12/23 01:03:45;;;;;;;5.82;3.90;;;13.40;91.50;14.20;100442.00;;;;5022419;28;20822;-76
2020/12/23 01:06:13;;;;;;;5.72;4.43;;;13.40;91.70;13.90;100430.00;;;;5031744;28;20421;-79
2020/12/23 01:08:42;;;;;;;5.65;4.53;;;13.30;91.70;13.80;100424.00;;;;5028807;28;20481;-78
2020/12/23 01:11:12;;;;;;;4.40;4.00;;;13.30;91.80;13.90;100419.00;;;;5022934;28;20473;-80
2020/12/23 01:13:40;;;;;;;3.85;3.45;;;13.20;91.80;13.90;100414.00;;;;5046719;28;20506;-79
2020/12/23 01:16:09;;;;;;;4.13;2.72;;;13.20;91.80;14.00;100410.00;;;;5031911;28;21125;-80
2020/12/23 01:18:36;;;;;;;2.75;2.25;;;13.20;91.90;14.00;100405.00;;;;5033776;28;20442;-80
2020/12/23 01:21:03;;;;;;;3.88;2.70;;;13.20;91.90;14.10;100428.00;;;;5034679;28;20421;-81
2020/12/23 01:23:31;;;;;;;2.80;2.40;;;13.20;91.90;14.10;100430.00;;;;5031310;28;20415;-81
2020/12/23 01:25:58;;;;;;;3.63;2.50;;;13.20;91.90;14.10;100436.00;;;;5030614;28;20505;-81
2020/12/23 01:28:25;;;;;;;2.58;2.38;;;13.20;91.90;14.10;100431.00;;;;5034824;28;20461;-80
2020/12/23 01:30:52;;;;;;;3.33;2.00;;;13.20;92.20;14.10;100440.00;;;;5033874;28;20822;-79
2020/12/23 01:33:21;;;;;;;2.70;1.80;;;13.20;91.90;14.20;100453.00;;;;5031708;28;20772;-79
2020/12/23 01:35:48;;;;;;;2.80;1.40;;;13.10;91.90;14.10;100437.00;;;;5033405;28;20527;-81
2020/12/23 01:38:15;;;;;;;2.10;1.23;;;13.10;91.80;14.10;100432.00;;;;5032661;28;20859;-79
2020/12/23 01:40:43;;;;;;;2.40;1.30;;;13.10;91.90;14.20;100429.00;;;;5046586;28;20437;-80
2020/12/23 01:43:10;;;;;;;1.70;1.40;;;13.20;91.90;14.20;100428.00;;;;5044240;28;20415;-79
2020/12/23 01:45:38;;;;;;;3.08;1.77;;;13.10;91.80;52.70;162872.00;;;;5071459;28;20453;-79
2020/12/23 01:48:16;;;;;;;2.20;2.00;;;13.10;91.80;14.30;100443.00;;;;5053456;28;20442;-79
2020/12/23 01:50:45;;;;;;;3.60;1.80;;;13.10;91.80;14.30;100444.00;;;;5042577;28;20434;-80
2020/12/23 01:53:15;;;;;;;2.00;1.52;;;13.10;91.70;14.20;100439.00;;;;5034327;28;20427;-79
2020/12/23 01:55:45;;;;;;;2.47;1.80;;;13.10;91.80;14.10;100450.00;;;;5036249;28;20407;-79
2020/12/23 01:58:12;;;;;;;2.07;1.40;;;13.10;91.80;14.10;100446.00;;;;5021389;28;20420;-79
2020/12/23 02:00:40;;;;;;;2.40;1.93;;;13.10;91.70;14.00;100443.00;;;;5032799;28;20457;-79
2020/12/23 02:03:10;;;;;;;2.00;1.50;;;13.00;91.60;13.90;100438.00;;;;5035165;28;20423;-82
2020/12/23 02:05:39;;;;;;;3.20;1.85;;;13.00;91.60;13.90;100434.00;;;;5035534;28;20509;-82
2020/12/23 02:08:07;;;;;;;2.40;2.20;;;12.90;91.50;13.80;100424.00;;;;5045166;28;20419;-82
2020/12/23 02:10:40;;;;;;;3.30;2.47;;;13.00;91.60;13.70;100430.00;;;;5035449;28;20834;-82
2020/12/23 02:13:09;;;;;;;2.90;2.70;;;13.00;91.60;13.80;100408.00;;;;5049780;28;20611;-81
2020/12/23 02:15:37;;;;;;;3.90;3.10;;;13.00;91.70;13.70;100414.00;;;;5036921;28;20419;-81
2020/12/23 02:18:04;;;;;;;3.88;3.47;;;13.00;91.70;13.80;100425.00;;;;5051916;28;20447;-82
2020/12/23 02:20:31;;;;;;;4.10;3.60;;;13.00;91.80;13.80;100409.00;;;;5036627;28;20502;-82
2020/12/23 02:23:00;;;;;;;4.25;3.38;;;13.00;91.80;13.80;100418.00;;;;5037367;28;20435;-81
2020/12/23 02:25:27;;;;;;;3.80;3.50;;;13.00;91.80;13.80;100437.00;;;;5052506;28;20427;-82
2020/12/23 02:27:55;;;;;;;4.25;3.85;;;13.00;91.90;13.90;100433.00;;;;5035591;28;20497;-82
2020/12/23 02:30:22;;;;;;;4.20;3.80;;;13.00;91.90;13.90;100433.00;;;;5033620;28;20415;-82
2020/12/23 02:32:49;;;;;;;4.10;3.70;;;13.00;91.90;13.90;100434.00;;;;5032694;28;20433;-81
2020/12/23 02:35:17;;;;;;;5.03;3.80;;;13.00;91.90;13.90;100426.00;;;;5037985;28;20931;-82
2020/12/23 02:37:44;;;;;;;3.80;3.40;;;13.00;91.90;13.90;100435.00;;;;5045891;28;20448;-82
2020/12/23 02:40:12;;;;;;;4.05;3.65;;;13.00;91.90;14.00;100438.00;;;;5028581;28;20572;-82
2020/12/23 02:42:45;;;;;;;3.60;3.20;;;13.00;91.90;14.00;100441.00;;;;5034734;28;20818;-82
2020/12/23 02:45:13;;;;;;;4.00;2.80;;;13.00;91.90;13.90;100443.00;;;;5036117;28;20431;-82
2020/12/23 02:47:40;;;;;;;3.40;2.93;;;13.00;91.90;13.80;100447.00;;;;5034586;28;20419;-82
2020/12/23 02:50:08;;;;;;;3.58;2.83;;;13.00;91.80;13.80;100445.00;;;;5033454;28;20419;-82
2020/12/23 02:52:35;;;;;;;3.45;2.58;;;12.90;91.70;13.80;100440.00;;;;5032958;28;20427;-82
2020/12/23 02:55:03;;;;;;;3.58;2.30;;;12.90;91.70;13.80;100440.00;;;;5035344;28;20536;-82
2020/12/23 02:57:31;;;;;;;2.50;1.90;;;12.90;91.70;13.70;100440.00;;;;5030270;28;20823;-83
2020/12/23 02:59:58;;;;;;;2.85;1.80;;;12.80;91.60;13.70;100457.00;;;;5026248;28;20424;-83
2020/12/23 03:02:25;;;;;;;2.10;1.60;;;12.80;91.60;13.70;100440.00;;;;5034953;28;20415;-83
2020/12/23 03:05:00;;;;;;;2.70;1.90;;;12.80;91.60;13.60;100441.00;;;;5032974;28;20419;-82
2020/12/23 03:07:28;;;;;;;3.20;2.40;;;12.80;91.60;13.60;100441.00;;;;5034263;28;20522;-83
2020/12/23 03:09:55;;;;;;;3.00;2.20;;;12.80;91.70;13.70;100436.00;;;;5041414;28;20427;-82
2020/12/23 03:12:23;;;;;;;4.10;3.28;;;12.80;91.70;13.80;100437.00;;;;5056133;28;20399;-84
2020/12/23 03:14:51;;;;;;;3.70;3.03;;;12.80;91.70;13.80;100421.00;;;;5055468;28;20439;-83
2020/12/23 03:17:18;;;;;;;4.15;2.88;;;12.80;91.70;13.70;100407.00;;;;5042133;28;20454;-83
2020/12/23 03:19:46;;;;;;;4.25;3.05;;;12.80;91.70;13.70;100416.00;;;;5048346;28;20433;-83
2020/12/23 03:22:13;;;;;;;3.50;3.20;;;12.80;91.70;13.80;100410.00;;;;5049561;28;20493;-83
2020/12/23 03:24:40;;;;;;;4.38;3.13;;;12.80;91.70;13.70;100403.00;;;;5043593;28;20419;-84
2020/12/23 03:27:09;;;;;;;3.30;3.00;;;12.80;91.70;13.60;100389.00;;;;5056457;28;20421;-84
2020/12/23 03:29:36;;;;;;;3.55;3.00;;;12.80;91.70;13.70;100387.00;;;;5056488;28;20415;-83
2020/12/23 03:32:04;;;;;;;3.10;2.80;;;12.80;92.10;13.60;100391.00;;;;5056292;28;20426;-84
2020/12/23 03:34:31;;;;;;;2.90;2.60;;;12.80;91.80;13.70;100401.00;;;;5049652;28;20419;-84
2020/12/23 03:36:59;;;;;;;3.30;2.70;;;12.80;91.80;13.60;100405.00;;;;5063573;28;20428;-84
2020/12/23 03:39:26;;;;;;;3.50;2.85;;;12.80;91.80;13.70;100408.00;;;;5058492;28;20498;-83
2020/12/23 03:41:53;;;;;;;3.10;2.80;;;12.70;91.80;13.80;100393.00;;;;5056797;28;20422;-83
2020/12/23 03:44:21;;;;;;;3.40;2.70;;;12.80;91.80;13.80;100403.00;;;;5056355;28;20423;-83
2020/12/23 03:46:48;;;;;;;3.38;2.72;;;12.80;91.80;13.80;100417.00;;;;5056501;28;20533;-83
2020/12/23 03:49:16;;;;;;;3.35;2.95;;;12.80;91.90;13.80;100409.00;;;;5044121;28;20991;-84
2020/12/23 03:51:44;;;;;;;3.20;2.90;;;12.90;91.90;13.80;100413.00;;;;5034966;28;20818;-84
2020/12/23 03:54:11;;;;;;;4.95;3.40;;;12.90;91.90;13.80;100422.00;;;;5055490;28;20510;-84
2020/12/23 03:56:39;;;;;;;4.05;3.65;;;12.90;91.90;13.70;100419.00;;;;5035762;28;20427;-83
2020/12/23 03:59:06;;;;;;;5.13;3.97;;;12.90;91.90;13.70;100418.00;;;;5034343;28;20454;-84
2020/12/23 04:01:33;;;;;;;3.92;3.40;;;12.90;91.90;13.70;100413.00;;;;5051054;28;20439;-83
2020/12/23 04:04:01;;;;;;;3.90;3.60;;;12.90;91.90;13.70;100420.00;;;;5035473;28;20415;-83
2020/12/23 04:06:29;;;;;;;3.50;3.20;;;12.90;91.90;13.70;100427.00;;;;5051359;28;20419;-84
2020/12/23 04:08:56;;;;;;;4.18;3.30;;;12.90;91.90;13.70;100424.00;;;;5034671;28;20839;-84
2020/12/23 04:11:24;;;;;;;5.33;3.70;;;12.90;91.90;13.70;100415.00;;;;5033068;28;20423;-84
2020/12/23 04:13:51;;;;;;;4.70;3.85;;;12.90;91.90;13.60;100417.00;;;;5033997;28;20426;-81
2020/12/23 04:16:18;;;;;;;4.50;3.70;;;12.90;91.90;13.60;100418.00;;;;5034613;28;20462;-83
2020/12/23 04:18:45;;;;;;;5.30;4.00;;;12.90;91.90;13.70;100417.00;;;;5035616;28;20423;-82
2020/12/23 04:21:13;;;;;;;3.55;3.25;;;12.90;91.90;13.70;100401.00;;;;5035416;28;20423;-82
2020/12/23 04:23:41;;;;;;;4.10;3.70;;;12.90;92.00;13.70;100398.00;;;;5034561;28;20412;-83
2020/12/23 04:26:08;;;;;;;3.88;3.47;;;12.90;92.00;13.60;100408.00;;;;5037213;28;20462;-82
2020/12/23 04:28:36;;;;;;;4.00;3.00;;;12.80;91.90;13.60;100393.00;;;;5036363;28;20918;-82
2020/12/23 04:31:04;;;;;;;3.70;2.70;;;12.80;91.90;13.50;100387.00;;;;5031774;28;21038;-81
2020/12/23 04:33:32;;;;;;;2.92;2.00;;;12.80;91.80;13.50;100404.00;;;;5034427;28;20429;-82
2020/12/23 04:35:59;;;;;;;3.60;2.00;;;12.70;91.70;13.50;100393.00;;;;5034862;28;20435;-82
2020/12/23 04:38:27;;;;;;;2.10;1.90;;;12.70;92.00;13.40;100396.00;;;;5038958;28;20433;-82
2020/12/23 04:40:56;;;;;;;3.30;1.80;;;12.70;91.70;13.40;100394.00;;;;5050069;28;20419;-82
2020/12/23 04:43:24;;;;;;;2.50;1.90;;;12.60;91.60;13.40;100398.00;;;;5048493;28;20427;-81
2020/12/23 04:45:52;;;;;;;3.30;1.70;;;12.60;91.60;13.40;100395.00;;;;5041500;28;20443;-81
2020/12/23 04:48:25;;;;;;;2.00;1.30;;;12.60;91.60;13.40;100398.00;;;;5036744;28;20414;-81
2020/12/23 04:50:56;;;;;;;1.52;1.20;;;12.60;91.50;13.30;100376.00;;;;5034739;28;20414;-81
2020/12/23 04:53:24;;;;;;;2.25;1.20;;;12.60;91.70;13.30;100374.00;;;;5034563;28;20477;-81
2020/12/23 04:55:51;;;;;;;2.35;1.55;;;12.60;91.30;13.30;100375.00;;;;5056179;28;20419;-81
2020/12/23 04:58:20;;;;;;;1.42;1.17;;;12.50;91.30;13.30;100382.00;;;;5035151;28;20482;-82
2020/12/23 05:00:47;;;;;;;3.30;1.37;;;12.50;91.30;13.30;100384.00;;;;5034664;28;20453;-81
2020/12/23 05:03:16;;;;;;;2.20;1.50;;;12.50;91.30;13.30;100376.00;;;;5036143;28;20427;-81
2020/12/23 05:05:44;;;;;;;2.60;1.40;;;12.40;91.30;13.20;100368.00;;;;5050501;28;21011;-80
2020/12/23 05:08:11;;;;;;;3.70;1.50;;;12.40;91.30;217.30;162422.00;;;;5034575;28;20419;-83
2020/12/23 05:10:38;;;;;;;3.40;1.40;;;12.40;91.30;13.30;100365.00;;;;5033325;28;20419;-83
2020/12/23 05:13:06;;;;;;;3.28;1.40;;;12.40;91.40;13.30;100368.00;;;;5044573;28;20518;-81
2020/12/23 05:15:35;;;;;;;3.03;1.50;;;12.40;91.40;13.30;100366.00;;;;5033412;28;20453;-80
2020/12/23 05:18:03;;;;;;;3.20;1.60;;;12.40;91.40;13.30;100365.00;;;;5061308;28;20431;-80
2020/12/23 05:20:30;;;;;;;3.30;1.60;;;12.40;91.40;13.40;100366.00;;;;5036726;28;20426;-81
2020/12/23 05:22:59;;;;;;;4.50;1.65;;;12.40;91.40;13.40;100354.00;;;;5041990;28;20422;-80
2020/12/23 05:25:29;;;;;;;3.58;1.88;;;12.40;91.50;13.40;100376.00;;;;5044022;28;20426;-81
2020/12/23 05:27:58;;;;;;;3.10;1.52;;;12.30;91.40;13.40;100387.00;;;;5043814;28;20438;-80
2020/12/23 05:30:27;;;;;;;3.08;1.65;;;12.40;91.40;13.40;100391.00;;;;5041112;28;20506;-80
2020/12/23 05:32:56;;;;;;;3.80;1.80;;;12.40;91.50;13.50;100393.00;;;;5037272;28;20431;-80
2020/12/23 05:35:23;;;;;;;3.13;1.80;;;12.40;91.50;13.50;100383.00;;;;5036344;28;21016;-80
2020/12/23 05:37:51;;;;;;;3.30;1.92;;;12.40;91.50;13.50;100380.00;;;;5036722;28;20821;-80
2020/12/23 05:40:18;;;;;;;2.85;1.73;;;12.40;91.50;13.50;100392.00;;;;5036880;28;20427;-80
2020/12/23 05:42:48;;;;;;;3.40;1.90;;;12.40;91.50;13.40;100375.00;;;;5034717;28;20535;-80
2020/12/23 05:45:17;;;;;;;2.65;1.95;;;12.40;91.50;13.40;100384.00;;;;5044235;28;20415;-80
2020/12/23 05:47:44;;;;;;;3.75;1.80;;;12.40;91.50;13.40;100380.00;;;;5062977;28;20415;-81
2020/12/23 05:50:12;;;;;;;2.33;1.80;;;12.30;91.40;13.40;100382.00;;;;5045835;28;20495;-82
2020/12/23 05:52:40;;;;;;;5.85;1.70;;;12.40;91.50;13.30;100381.00;;;;5036465;28;20506;-80
2020/12/23 05:55:17;;;;;;;3.08;2.00;;;12.40;91.40;13.20;100378.00;;;;5034134;28;20430;-80
2020/12/23 05:57:45;;;;;;;3.28;1.70;;;12.40;91.40;13.30;100370.00;;;;5037002;28;20981;-79
2020/12/23 06:00:14;;;;;;;3.33;1.80;;;12.30;91.40;13.40;100375.00;;;;5034264;28;20961;-80
2020/12/23 06:03:10;;;;;;;2.80;1.60;;;12.30;91.40;13.40;100365.00;;;;5052295;28;20431;-79
2020/12/23 06:05:44;;;;;;;4.22;1.90;;;12.30;91.50;13.50;100356.00;;;;5027767;28;20442;-79
2020/12/23 06:08:14;;;;;;;2.50;1.80;;;12.40;91.60;13.50;100344.00;;;;5027360;28;20415;-79
2020/12/23 06:10:43;;;;;;;2.38;1.80;;;12.30;91.50;13.50;100339.00;;;;5033310;28;20419;-80
2020/12/23 06:13:12;;;;;;;3.30;1.50;;;12.30;91.50;13.40;100362.00;;;;5031150;28;20494;-80
2020/12/23 06:15:42;;;;;;;3.08;1.90;;;12.40;91.50;13.40;100359.00;;;;5021637;28;20415;-79
2020/12/23 06:18:18;;;;;;;4.20;1.70;;;12.30;91.40;13.40;100376.00;;;;5032941;28;20823;-78
2020/12/23 06:20:46;;;;;;;3.50;2.00;;;12.30;91.40;13.30;100359.00;;;;5034483;28;20450;-79
2020/12/23 06:23:27;;;;;;;3.30;1.80;;;12.30;91.40;13.30;100354.00;;;;5033197;28;20425;-79
2020/12/23 06:25:54;;;;;;;3.05;1.90;;;12.30;91.40;13.30;100357.00;;;;5032306;28;20431;-79
2020/12/23 06:28:24;;;;;;;3.30;2.40;;;12.30;91.50;13.40;100343.00;;;;5041657;28;20964;-79
2020/12/23 06:30:53;;;;;;;3.90;2.70;;;12.30;91.50;13.30;100347.00;;;;5046845;28;20447;-79
2020/12/23 06:33:22;;;;;;;4.82;2.50;;;12.30;91.50;13.30;100355.00;;;;5040565;28;20431;-79
2020/12/23 06:35:50;;;;;;;3.45;2.80;;;12.30;91.50;13.40;100342.00;;;;5049561;28;20432;-80
2020/12/23 06:38:22;;;;;;;5.88;2.60;;;12.30;91.50;13.40;100354.00;;;;5048061;28;20430;-79
2020/12/23 06:41:09;;;;;;;4.85;2.60;;;12.30;91.60;13.50;100366.00;;;;5027066;28;20424;-80
2020/12/23 06:43:54;;;;;;;3.83;2.50;;;12.30;91.60;13.50;100352.00;;;;5037447;28;20426;-81
2020/12/23 06:46:21;;;;;;;4.38;3.10;;;12.30;91.60;13.50;100349.00;;;;5025170;28;20494;-80
2020/12/23 06:48:49;;;;;;;4.57;3.10;;;12.40;91.60;13.50;100340.00;;;;5052148;28;21069;-79
2020/12/23 06:51:42;;;;;;;7.03;3.80;;;12.30;91.60;13.60;100351.00;;;;5043514;28;20418;-80
2020/12/23 06:54:09;;;;;;;5.50;3.47;;;12.40;91.70;13.70;100342.00;;;;5046429;28;20416;-80
2020/12/23 06:56:47;;;;;;;6.90;4.20;;;12.40;91.60;13.70;100352.00;;;;5053694;28;20492;-79
2020/12/23 06:59:54;;;;;;;5.50;3.47;;;12.50;91.70;13.70;100347.00;;;;5044663;28;20461;-79
2020/12/23 07:02:21;;;;;;;5.75;3.90;;;12.50;91.60;13.70;100332.00;;;;5020725;28;20422;-79
2020/12/23 07:04:49;;;;;;;5.78;3.70;;;12.40;91.80;13.70;100333.00;;;;5029659;28;20839;-79
2020/12/23 07:07:34;;;;;;;5.28;3.40;;;12.40;91.60;13.70;100330.00;;;;5039316;28;20920;-80
2020/12/23 07:10:10;;;;;;;5.75;3.75;;;12.40;91.60;13.60;100324.00;;;;5029332;28;20426;-82
2020/12/23 07:12:43;;;;;;;5.95;3.80;;;12.40;91.60;13.70;100319.00;;;;5053441;28;20423;-82
2020/12/23 07:15:12;;;;;;;6.53;3.60;;;12.40;91.60;13.60;100316.00;;;;5055903;28;20431;-83
2020/12/23 07:17:41;;;;;;;6.15;3.35;;;12.40;91.60;13.70;100314.00;;;;5055436;28;20423;-81
2020/12/23 07:20:10;;;;;;;7.30;3.20;;;12.40;91.60;13.70;100308.00;;;;5056304;28;20403;-79
2020/12/23 07:22:39;;;;;;;5.82;3.65;;;12.40;91.70;13.80;100313.00;;;;5055465;28;20430;-80
2020/12/23 07:25:07;;;;;;;7.60;3.90;;;12.50;91.70;13.80;100308.00;;;;5040468;28;20428;-79
2020/12/23 07:27:37;;;;;;;6.10;3.70;;;12.50;91.70;13.70;100315.00;;;;5033972;28;20418;-80
2020/12/23 07:30:08;;;;;;;6.28;3.60;;;12.50;91.70;13.70;100331.00;;;;5035432;28;20419;-80
2020/12/23 07:32:36;;;;;;;5.13;3.60;;;12.50;91.70;13.70;100320.00;;;;5034032;28;20419;-79
2020/12/23 07:35:05;;;;;;;7.88;4.00;;;12.50;91.70;13.80;100323.00;;;;5033382;28;20764;-80
2020/12/23 07:37:40;;;;;;;6.97;3.87;;;12.50;91.80;13.80;100317.00;;;;5034628;28;20423;-80
2020/12/23 07:40:14;;;;;;;8.00;4.60;;;12.50;91.80;13.80;100331.00;;;;5032816;28;20517;-79
2020/12/23 07:42:48;;;;;;;5.50;3.90;;;12.60;91.80;13.80;100314.00;;;;5032362;28;20760;-79
2020/12/23 07:45:15;;;;;;;7.40;4.50;;;12.60;91.80;13.80;100308.00;;;;5032052;28;20430;-79
2020/12/23 07:47:57;;;;;;;8.30;4.82;;;12.60;91.80;13.80;100068.00;;;;5035048;28;20419;-80
2020/12/23 07:50:26;;;;;;;8.57;5.22;;;12.60;91.80;13.90;100324.00;;;;5033329;28;20490;-80
2020/12/23 07:52:55;;;;;;;10.27;5.20;;;12.60;91.80;13.90;100323.00;;;;5035013;28;20498;-79
2020/12/23 07:55:24;;;;;;;7.28;4.30;;;12.70;91.90;14.00;100324.00;;;;5032893;28;20414;-79
2020/12/23 07:57:53;;;;;;;9.75;5.65;;;12.70;91.80;14.00;100320.00;;;;5030384;28;20510;-79
2020/12/23 08:00:21;;;;;;;8.87;5.50;;;12.70;91.80;14.00;100312.00;;;;5028611;28;20472;-79
2020/12/23 08:02:53;;;;;;;9.00;6.50;;;12.70;91.70;14.10;100311.00;;;;5034548;28;20426;-78
2020/12/23 08:05:21;;;;;;;9.27;6.47;;;12.70;91.80;14.10;100300.00;;;;5036929;28;20426;-79
2020/12/23 08:07:49;;;;;;;8.88;6.30;;;12.80;91.80;14.10;100311.00;;;;5037339;28;20449;-79
2020/12/23 08:10:19;;;;;;;10.35;7.30;;;12.80;91.80;14.10;100302.00;;;;5019991;28;20522;-79
2020/12/23 08:12:56;;;;;;;9.80;7.47;;;12.80;91.70;14.10;100307.00;;;;5036141;28;20972;-79
2020/12/23 08:15:25;;;;;;;8.80;7.47;;;12.80;91.70;14.10;100306.00;;;;5038614;28;20496;-80
2020/12/23 08:18:00;;;;;;;8.25;7.10;;;12.80;91.70;14.10;100308.00;;;;5048959;28;20430;-81
2020/12/23 08:20:37;;;;;;;9.13;7.10;;;12.80;91.70;14.10;100304.00;;;;5049625;28;20443;-82
2020/12/23 08:23:05;;;;;;;8.07;7.25;;;13.00;91.70;14.10;100303.00;;;;5049521;28;20518;-80
2020/12/23 08:25:34;;;;;;;10.40;8.32;;;12.80;91.60;14.10;100296.00;;;;5052522;28;20402;-79
2020/12/23 08:28:02;;;;;;;10.82;8.73;;;12.80;91.60;14.00;100312.00;;;;5069752;28;20766;-80
2020/12/23 08:30:32;;;;;;;11.00;8.50;;;12.90;91.60;14.00;100311.00;;;;5069637;28;20438;-79
2020/12/23 08:33:07;;;;;;;11.60;9.40;;;12.80;91.60;14.00;100303.00;;;;5052629;28;20442;-81
2020/12/23 08:35:37;;;;;;;15.93;12.70;;;12.80;91.60;14.10;100302.00;;;;5064439;28;20406;-80
2020/12/23 08:38:16;;;;;;;14.80;10.63;;;12.80;91.70;14.10;100309.00;;;;5050004;28;20419;-81
2020/12/23 08:40:49;;;;;;;11.90;9.05;;;12.80;91.70;14.10;100310.00;;;;5036463;28;20471;-80
2020/12/23 08:43:21;;;;;;;13.45;9.85;;;12.80;91.70;14.10;100302.00;;;;5038798;28;20442;-81
2020/12/23 08:45:49;;;;;;;13.45;9.30;;;12.90;91.80;14.10;100300.00;;;;5042500;28;20447;-79
2020/12/23 08:48:20;;;;;;;14.68;9.88;;;12.90;91.70;14.10;100310.00;;;;5041919;28;20519;-81
2020/12/23 08:50:55;;;;;;;13.20;9.45;;;12.80;91.70;14.10;100298.00;;;;5037426;28;20444;-81
2020/12/23 08:53:30;;;;;;;15.32;10.68;;;12.90;91.80;14.20;100297.00;;;;5059990;28;20505;-81
2020/12/23 08:55:59;;;;;;;15.98;10.32;;;12.90;91.80;14.20;100286.00;;;;5047170;28;20503;-81
2020/12/23 08:58:27;;;;;;;16.02;11.23;;;12.90;91.80;14.20;100290.00;;;;5047300;28;20815;-79
2020/12/23 09:00:59;;;;;;;13.32;10.80;;;12.90;91.80;14.20;100292.00;;;;5046666;28;20421;-81
2020/12/23 09:03:27;;;;;;;13.70;9.90;;;13.00;91.80;14.20;100288.00;;;;5045299;28;20923;-80
2020/12/23 09:05:57;;;;;;;12.95;9.35;;;13.00;91.90;14.10;100286.00;;;;5046019;28;20419;-81
2020/12/23 09:08:26;;;;;;;13.35;9.68;;;13.00;91.80;14.10;100288.00;;;;5044923;28;20427;-80
2020/12/23 09:10:56;;;;;;;12.30;8.83;;;13.00;91.90;14.10;100268.00;;;;5046255;28;20423;-80
2020/12/23 09:13:33;;;;;;;9.23;7.72;;;13.00;91.90;14.10;100283.00;;;;5046881;28;20506;-79
2020/12/23 09:16:01;;;;;;;10.67;9.10;;;13.00;91.90;14.10;100284.00;;;;5045981;28;20450;-79
2020/12/23 09:18:28;;;;;;;8.98;7.47;;;13.00;92.00;14.20;100279.00;;;;5058743;28;20454;-79
2020/12/23 09:21:00;;;;;;;9.75;7.07;;;13.10;92.00;14.20;100286.00;;;;5061367;28;20449;-79
2020/12/23 09:23:29;;;;;;;10.10;6.93;;;13.10;92.10;14.20;100298.00;;;;5042257;28;20426;-81
2020/12/23 09:25:57;;;;;;;7.13;5.32;;;13.10;92.10;14.20;100289.00;;;;5048198;28;20446;-81
2020/12/23 09:28:31;;;;;;;6.40;5.70;;;13.10;92.10;14.30;100286.00;;;;5046743;28;20458;-79
2020/12/23 09:31:01;;;;;;;6.60;5.90;;;13.10;92.10;14.30;100282.00;;;;5044433;28;20480;-80
2020/12/23 09:33:40;;;;;;;6.60;4.60;;;13.20;92.10;14.30;100295.00;;;;5037766;28;20452;-82
2020/12/23 09:36:09;;;;;;;5.75;4.70;;;13.20;92.10;14.40;100289.00;;;;5042712;28;20822;-80
2020/12/23 09:38:37;;;;;;;6.50;5.20;;;13.20;92.00;14.40;100291.00;;;;5042781;28;20432;-81
2020/12/23 09:41:06;;;;;;;5.40;4.50;;;13.20;92.00;14.40;100295.00;;;;5043956;28;20431;-81
2020/12/23 09:43:36;;;;;;;4.93;4.30;;;13.30;92.00;14.30;100287.00;;;;5059825;28;20453;-80
2020/12/23 09:46:08;;;;;;;5.78;4.63;;;13.20;92.00;14.30;100288.00;;;;5043871;28;20415;-80
2020/12/23 09:48:36;;;;;;;6.10;5.50;;;13.20;92.00;14.40;100290.00;;;;5048342;28;20419;-81
2020/12/23 09:51:06;;;;;;;6.22;5.20;;;13.20;92.00;14.40;100275.00;;;;5057282;28;20841;-80
2020/12/23 09:53:34;;;;;;;7.37;5.33;;;13.20;92.00;14.40;100271.00;;;;5057571;28;20422;-81
2020/12/23 09:56:01;;;;;;;5.90;3.90;;;13.20;92.10;14.40;100271.00;;;;5052679;28;20407;-80
2020/12/23 09:58:32;;;;;;;1.23;0.93;;;13.20;92.10;14.40;100260.00;;;;5043961;28;20553;-81
2020/12/23 10:01:00;;;;;;;0.80;0.40;;;13.30;92.10;14.40;100263.00;;;;5048474;28;20406;-80
2020/12/23 10:03:28;;;;;;;0.80;0.40;;;13.30;92.10;14.40;100251.00;;;;5056911;28;20601;-81
2020/12/23 10:05:58;;;;;;;0.80;0.40;;;13.40;92.10;14.40;100249.00;;;;5055365;28;20438;-81
2020/12/23 10:08:25;;;;;;;1.00;0.60;;;13.60;92.30;14.60;100233.00;;;;5055164;28;20426;-82
2020/12/23 10:10:52;;;;;;;1.20;0.50;;;13.80;91.90;14.60;100236.00;;;;5053467;28;20423;-80
2020/12/23 10:13:20;;;;;;;1.00;0.70;;;14.00;91.50;14.60;100226.00;;;;5046063;28;20521;-80
2020/12/23 10:15:54;;;;;;;0.80;0.40;;;14.00;91.00;14.60;100230.00;;;;5045721;28;20954;-82
2020/12/23 10:18:22;;;;;;;0.82;0.40;;;14.00;91.00;14.50;100215.00;;;;5041143;28;20530;-79
2020/12/23 10:20:49;;;;;;;0.90;0.40;;;13.90;90.70;14.60;100224.00;;;;5039269;28;20438;-79
2020/12/23 10:23:16;;;;;;;0.80;0.40;;;13.70;91.10;14.60;100218.00;;;;5040455;28;20502;-78
2020/12/23 10:25:53;;;;;;;0.80;0.40;;;13.60;91.40;14.40;100210.00;;;;5041190;28;20419;-79
2020/12/23 10:28:22;;;;;;;1.00;0.80;;;13.60;91.40;14.40;100208.00;;;;5045657;28;20438;-80
2020/12/23 10:30:50;;;;;;;1.70;0.70;;;13.50;91.60;14.40;100189.00;;;;5043407;28;20468;-80
2020/12/23 10:33:17;;;;;;;0.80;0.40;;;13.40;91.60;14.30;100209.00;;;;5041165;28;20521;-79
2020/12/23 10:35:46;;;;;;;0.90;0.40;;;13.40;91.70;14.30;100201.00;;;;5041986;28;20429;-80
2020/12/23 10:38:16;;;;;;;0.80;0.40;;;13.40;91.70;14.30;69433.00;;;;5042214;28;20431;-81
2020/12/23 10:40:43;;;;;;;0.80;0.40;;;13.40;91.80;14.30;100171.00;;;;5052867;28;20402;-79
2020/12/23 10:43:10;;;;;;;0.80;0.40;;;13.40;91.80;14.40;100179.00;;;;5058811;28;20433;-80
2020/12/23 10:45:40;;;;;;;0.80;0.40;;;13.40;91.90;14.40;100181.00;;;;5053903;28;20427;-81
2020/12/23 10:48:07;;;;;;;0.80;0.40;;;13.40;91.80;14.30;69448.00;;;;5044692;28;20415;-79
2020/12/23 10:50:35;;;;;;;0.90;0.40;;;13.40;91.70;14.30;100170.00;;;;5045488;28;20404;-81
2020/12/23 10:53:03;;;;;;;0.80;0.40;;;13.40;91.70;14.30;69445.00;;;;5044821;28;20454;-82
2020/12/23 10:55:31;;;;;;;0.80;0.40;;;13.50;91.80;14.30;100165.00;;;;5043684;28;20427;-81
2020/12/23 10:57:58;;;;;;;0.80;0.40;;;13.40;91.70;14.30;100162.00;;;;5046588;28;20426;-80